createdAt,value
2018-06-27T00:01:31.313Z,17.10
2018-06-27T00:04:06.395Z,17.10
2018-06-27T00:06:41.253Z,17.00
2018-06-27T00:09:16.251Z,17.00
2018-06-27T00:11:51.073Z,16.90
2018-06-27T00:14:26.475Z,16.90
2018-06-27T00:17:01.493Z,16.90
2018-06-27T00:19:36.788Z,16.90
2018-06-27T00:24:46.399Z,16.80
2018-06-27T00:27:21.239Z,16.80
2018-06-27T00:32:30.716Z,16.90
2018-06-27T00:35:05.815Z,16.90
2018-06-27T00:37:40.582Z,16.90
2018-06-27T00:40:15.568Z,16.80
2018-06-27T00:42:50.974Z,16.90
2018-06-27T00:45:25.932Z,16.90
2018-06-27T00:48:00.965Z,16.90
2018-06-27T00:50:36.206Z,16.80
2018-06-27T00:53:10.976Z,16.80
2018-06-27T00:55:45.781Z,16.80
2018-06-27T00:58:21.110Z,16.80
2018-06-27T01:00:55.999Z,16.80
2018-06-27T01:03:30.850Z,16.90
2018-06-27T01:08:40.302Z,16.90
2018-06-27T01:11:15.386Z,17.00
2018-06-27T01:13:50.698Z,16.90
2018-06-27T01:16:26.053Z,16.90
2018-06-27T01:19:00.875Z,16.90
2018-06-27T01:21:35.742Z,16.90
2018-06-27T01:24:10.825Z,16.80
2018-06-27T01:26:46.110Z,16.80
2018-06-27T01:29:21.132Z,16.80
2018-06-27T01:31:56.004Z,16.70
2018-06-27T01:34:31.262Z,16.60
2018-06-27T01:37:06.142Z,16.60
2018-06-27T01:39:41.454Z,16.50
2018-06-27T01:42:16.390Z,16.50
2018-06-27T01:44:51.518Z,16.40
2018-06-27T01:47:26.526Z,16.30
2018-06-27T01:50:01.581Z,16.20
2018-06-27T01:52:36.755Z,16.10
2018-06-27T01:55:11.526Z,16.10
2018-06-27T01:57:46.487Z,16.20
2018-06-27T02:00:21.298Z,16.10
2018-06-27T02:02:56.326Z,16.10
2018-06-27T02:05:31.146Z,16.10
2018-06-27T02:08:06.550Z,16.00
2018-06-27T02:10:41.363Z,15.90
2018-06-27T02:13:16.201Z,15.90
2018-06-27T02:15:51.152Z,16.00
2018-06-27T02:18:26.248Z,16.00
2018-06-27T02:21:01.130Z,16.00
2018-06-27T02:26:11.229Z,16.00
2018-06-27T02:28:45.998Z,16.00
2018-06-27T02:31:21.003Z,16.00
2018-06-27T02:33:55.994Z,16.00
2018-06-27T02:36:31.215Z,16.00
2018-06-27T02:39:08.747Z,16.00
2018-06-27T02:44:17.797Z,16.10
2018-06-27T02:46:52.782Z,16.10
2018-06-27T02:49:28.102Z,16.10
2018-06-27T02:52:03.047Z,16.10
2018-06-27T02:54:44.389Z,16.10
2018-06-27T02:57:19.154Z,16.10
2018-06-27T03:02:29.380Z,16.20
2018-06-27T03:05:04.356Z,16.20
2018-06-27T03:07:33.681Z,16.10
2018-06-27T03:10:09.409Z,16.10
2018-06-27T03:12:44.162Z,16.10
2018-06-27T03:15:19.085Z,16.10
2018-06-27T03:20:28.548Z,16.00
2018-06-27T03:23:03.411Z,16.00
2018-06-27T03:25:38.364Z,16.00
2018-06-27T03:28:13.295Z,16.00
2018-06-27T03:30:48.420Z,16.10
2018-06-27T03:33:23.588Z,16.00
2018-06-27T03:35:58.487Z,15.90
2018-06-27T03:38:33.275Z,15.80
2018-06-27T03:41:08.497Z,15.70
2018-06-27T03:43:43.149Z,15.70
2018-06-27T03:46:18.217Z,15.80
2018-06-27T03:48:52.931Z,15.80
2018-06-27T03:51:27.776Z,15.70
2018-06-27T03:54:03.015Z,15.70
2018-06-27T03:56:37.896Z,15.70
2018-06-27T03:59:13.136Z,15.70
2018-06-27T04:01:47.867Z,15.80
2018-06-27T04:04:22.614Z,15.80
2018-06-27T04:09:31.811Z,15.90
2018-06-27T04:12:06.804Z,16.00
2018-06-27T04:14:42.011Z,15.90
2018-06-27T04:17:16.973Z,16.00
2018-06-27T04:19:51.965Z,16.00
2018-06-27T04:22:35.254Z,16.10
2018-06-27T04:25:10.117Z,16.10
2018-06-27T04:27:45.081Z,16.00
2018-06-27T04:30:19.975Z,16.00
2018-06-27T04:32:55.531Z,16.00
2018-06-27T04:35:30.218Z,16.10
2018-06-27T04:38:05.088Z,16.10
2018-06-27T04:40:40.230Z,16.10
2018-06-27T04:43:15.068Z,16.10
2018-06-27T04:45:44.680Z,16.00
2018-06-27T04:48:19.786Z,16.00
2018-06-27T04:50:55.520Z,16.10
2018-06-27T04:53:30.754Z,16.10
2018-06-27T04:56:06.265Z,16.10
2018-06-27T04:58:41.610Z,16.00
2018-06-27T05:01:16.143Z,15.90
2018-06-27T05:03:50.806Z,16.00
2018-06-27T05:06:26.444Z,16.10
2018-06-27T05:09:01.243Z,16.10
2018-06-27T05:11:36.312Z,16.20
2018-06-27T05:14:11.803Z,16.20
2018-06-27T05:16:44.679Z,16.20
2018-06-27T05:19:19.547Z,16.10
2018-06-27T05:21:54.638Z,16.20
2018-06-27T05:24:29.866Z,16.30
2018-06-27T05:27:05.032Z,16.40
2018-06-27T05:29:39.844Z,16.40
2018-06-27T05:32:14.957Z,16.50
2018-06-27T05:34:49.910Z,16.50
2018-06-27T05:37:25.323Z,16.40
2018-06-27T05:40:00.018Z,16.50
2018-06-27T05:42:35.314Z,16.50
2018-06-27T05:45:10.029Z,16.50
2018-06-27T05:47:39.448Z,16.50
2018-06-27T05:50:08.859Z,16.60
2018-06-27T05:52:38.185Z,16.60
2018-06-27T05:55:08.971Z,16.60
2018-06-27T05:57:39.602Z,16.60
2018-06-27T06:00:10.196Z,16.70
2018-06-27T06:02:39.487Z,16.80
2018-06-27T06:05:15.164Z,16.80
2018-06-27T06:07:50.316Z,16.90
2018-06-27T06:10:25.642Z,16.90
2018-06-27T06:13:00.513Z,16.90
2018-06-27T06:15:35.647Z,16.90
2018-06-27T06:18:10.393Z,16.90
2018-06-27T06:23:19.902Z,16.90
2018-06-27T06:28:24.102Z,17.00
2018-06-27T06:30:59.144Z,17.00
2018-06-27T06:33:33.847Z,17.10
2018-06-27T06:36:08.813Z,17.10
2018-06-27T06:38:43.881Z,17.10
2018-06-27T06:41:19.065Z,17.20
2018-06-27T06:43:53.926Z,17.20
2018-06-27T06:46:33.322Z,17.20
2018-06-27T06:49:08.000Z,17.20
2018-06-27T06:51:43.295Z,17.30
2018-06-27T06:54:18.812Z,17.30
2018-06-27T06:56:54.423Z,17.40
2018-06-27T06:59:29.480Z,17.40
2018-06-27T07:02:04.262Z,17.40
2018-06-27T07:04:39.381Z,17.40
2018-06-27T07:07:14.512Z,17.50
2018-06-27T07:09:49.548Z,17.50
2018-06-27T07:12:24.276Z,17.50
2018-06-27T07:15:00.276Z,17.50
2018-06-27T07:17:35.108Z,17.60
2018-06-27T07:20:09.887Z,17.60
2018-06-27T07:22:44.927Z,17.60
2018-06-27T07:25:20.079Z,17.60
2018-06-27T07:27:55.123Z,17.70
2018-06-27T07:30:30.387Z,17.70
2018-06-27T07:33:05.595Z,17.70
2018-06-27T07:35:40.974Z,17.80
2018-06-27T07:38:15.745Z,17.80
2018-06-27T07:40:45.084Z,17.80
2018-06-27T07:43:14.312Z,17.90
2018-06-27T07:45:49.127Z,17.90
2018-06-27T07:48:24.039Z,17.90
2018-06-27T07:50:59.304Z,17.90
2018-06-27T07:53:37.583Z,18.00
2018-06-27T07:56:12.427Z,18.00
2018-06-27T07:58:48.313Z,18.10
2018-06-27T08:01:18.006Z,18.10
2018-06-27T08:03:47.658Z,18.20
2018-06-27T08:06:17.261Z,18.20
2018-06-27T08:08:46.640Z,18.20
2018-06-27T08:11:16.506Z,18.30
2018-06-27T08:13:45.970Z,18.30
2018-06-27T08:16:15.206Z,18.40
2018-06-27T08:18:45.107Z,18.40
2018-06-27T08:21:14.539Z,18.50
2018-06-27T08:23:43.906Z,18.50
2018-06-27T08:26:13.249Z,18.60
2018-06-27T08:31:11.225Z,18.70
2018-06-27T08:33:40.402Z,18.70
2018-06-27T08:36:09.836Z,18.80
2018-06-27T08:38:39.071Z,18.80
2018-06-27T08:41:08.311Z,18.90
2018-06-27T08:43:38.172Z,18.90
2018-06-27T08:46:07.809Z,19.00
2018-06-27T08:48:37.167Z,19.00
2018-06-27T08:51:06.483Z,19.10
2018-06-27T08:53:35.554Z,19.10
2018-06-27T08:56:11.487Z,19.20
2018-06-27T09:01:09.715Z,19.20
2018-06-27T09:03:38.972Z,19.20
2018-06-27T09:06:08.717Z,19.30
2018-06-27T09:08:37.912Z,19.30
2018-06-27T09:11:07.083Z,19.30
2018-06-27T09:13:36.402Z,19.40
2018-06-27T09:16:06.064Z,19.50
2018-06-27T09:18:35.954Z,19.50
2018-06-27T09:21:05.147Z,19.60
2018-06-27T09:23:34.323Z,19.70
2018-06-27T09:26:03.815Z,19.70
2018-06-27T09:28:33.342Z,19.80
2018-06-27T09:31:02.754Z,19.80
2018-06-27T09:33:32.371Z,19.80
2018-06-27T09:36:01.731Z,19.90
2018-06-27T09:38:31.334Z,19.90
2018-06-27T09:41:00.595Z,20.00
2018-06-27T09:43:29.955Z,20.10
2018-06-27T09:45:59.285Z,20.10
2018-06-27T09:48:28.834Z,20.20
2018-06-27T09:51:03.667Z,20.20
2018-06-27T09:53:39.100Z,20.20
2018-06-27T09:56:13.975Z,20.20
2018-06-27T09:58:48.849Z,20.30
2018-06-27T10:01:24.034Z,20.30
2018-06-27T10:03:58.946Z,20.30
2018-06-27T10:06:33.998Z,20.40
2018-06-27T10:09:09.662Z,20.40
2018-06-27T10:11:44.755Z,20.50
2018-06-27T10:14:19.975Z,20.60
2018-06-27T10:16:55.184Z,20.60
2018-06-27T10:19:30.331Z,20.80
2018-06-27T10:22:06.376Z,20.90
2018-06-27T10:24:41.203Z,21.10
2018-06-27T10:27:16.389Z,21.20
2018-06-27T10:32:25.480Z,21.30
2018-06-27T10:35:00.522Z,21.30
2018-06-27T10:37:35.235Z,21.30
2018-06-27T10:40:10.253Z,21.30
2018-06-27T10:42:45.346Z,21.30
2018-06-27T10:45:17.892Z,21.40
2018-06-27T10:50:27.324Z,21.50
2018-06-27T10:53:02.595Z,21.60
2018-06-27T10:55:37.436Z,21.70
2018-06-27T10:58:13.551Z,21.90
2018-06-27T11:00:48.521Z,22.10
2018-06-27T11:03:25.222Z,22.10
2018-06-27T11:06:00.238Z,22.20
2018-06-27T11:08:35.238Z,22.20
2018-06-27T11:11:10.187Z,22.40
2018-06-27T11:13:44.978Z,22.50
2018-06-27T11:16:20.150Z,22.60
2018-06-27T11:18:55.260Z,22.60
2018-06-27T11:21:30.220Z,22.60
2018-06-27T11:24:05.072Z,22.60
2018-06-27T11:29:14.593Z,22.80
2018-06-27T11:31:49.536Z,22.80
2018-06-27T11:34:24.440Z,22.80
2018-06-27T11:36:59.547Z,22.90
2018-06-27T11:39:34.420Z,23.00
2018-06-27T11:42:09.136Z,23.10
2018-06-27T11:44:43.966Z,23.20
2018-06-27T11:47:18.971Z,23.30
2018-06-27T11:52:28.683Z,23.40
2018-06-27T11:55:06.032Z,23.40
2018-06-27T11:57:35.198Z,23.50
2018-06-27T12:00:05.207Z,23.60
2018-06-27T12:02:34.333Z,23.60
2018-06-27T12:05:03.868Z,23.70
2018-06-27T12:07:33.187Z,23.80
2018-06-27T12:10:02.288Z,23.90
2018-06-27T12:12:31.835Z,24.00
2018-06-27T12:15:01.116Z,24.00
2018-06-27T12:17:30.477Z,24.00
2018-06-27T12:19:59.534Z,23.90
2018-06-27T12:22:29.045Z,23.90
2018-06-27T12:24:59.312Z,23.90
2018-06-27T12:27:28.366Z,24.00
2018-06-27T12:29:57.496Z,24.10
2018-06-27T12:32:26.969Z,24.10
2018-06-27T12:34:56.681Z,24.10
2018-06-27T12:37:25.768Z,24.10
2018-06-27T12:42:23.867Z,24.30
2018-06-27T12:44:53.632Z,24.30
2018-06-27T12:47:22.711Z,24.30
2018-06-27T12:49:51.999Z,24.40
2018-06-27T12:52:21.500Z,24.60
2018-06-27T12:54:54.972Z,24.60
2018-06-27T12:57:24.320Z,24.60
2018-06-27T12:59:53.494Z,24.60
2018-06-27T13:02:26.251Z,24.60
2018-06-27T13:04:55.754Z,24.60
2018-06-27T13:07:24.986Z,24.50
2018-06-27T13:10:00.147Z,24.50
2018-06-27T13:12:35.453Z,24.50
2018-06-27T13:15:10.431Z,24.50
2018-06-27T13:17:45.727Z,24.60
2018-06-27T13:20:20.857Z,24.60
2018-06-27T13:22:56.147Z,24.80
2018-06-27T13:25:31.293Z,25.00
2018-06-27T13:28:06.457Z,25.20
2018-06-27T13:30:41.378Z,25.30
2018-06-27T13:33:16.673Z,25.30
2018-06-27T13:35:52.607Z,25.30
2018-06-27T13:38:27.486Z,25.40
2018-06-27T13:41:09.504Z,25.40
2018-06-27T13:43:44.915Z,25.30
2018-06-27T13:46:19.766Z,25.20
2018-06-27T13:48:54.897Z,25.20
2018-06-27T13:51:30.089Z,25.20
2018-06-27T13:54:05.124Z,25.10
2018-06-27T13:56:39.903Z,25.00
2018-06-27T13:59:14.977Z,25.10
2018-06-27T14:01:49.975Z,25.20
2018-06-27T14:04:24.847Z,25.20
2018-06-27T14:06:59.898Z,25.20
2018-06-27T14:09:34.801Z,25.20
2018-06-27T14:12:09.845Z,25.20
2018-06-27T14:14:45.055Z,25.30
2018-06-27T14:17:20.154Z,25.30
2018-06-27T14:19:57.253Z,25.30
2018-06-27T14:22:32.601Z,25.20
2018-06-27T14:25:07.775Z,25.20
2018-06-27T14:27:43.031Z,25.20
2018-06-27T14:30:27.438Z,25.20
2018-06-27T14:33:02.436Z,25.20
2018-06-27T14:35:32.622Z,25.10
2018-06-27T14:38:13.731Z,25.20
2018-06-27T14:40:43.012Z,25.20
2018-06-27T14:46:03.921Z,25.40
2018-06-27T14:48:33.349Z,25.40
2018-06-27T14:51:02.862Z,25.40
2018-06-27T14:53:32.268Z,25.30
2018-06-27T14:56:02.183Z,25.20
2018-06-27T14:58:31.971Z,25.20
2018-06-27T15:01:01.336Z,25.20
2018-06-27T15:05:59.983Z,25.10
2018-06-27T15:08:29.611Z,25.20
2018-06-27T15:11:18.524Z,25.30
2018-06-27T15:13:53.351Z,25.40
2018-06-27T15:16:28.509Z,25.40
2018-06-27T15:19:03.299Z,25.40
2018-06-27T15:21:38.881Z,25.60
2018-06-27T15:24:13.839Z,25.70
2018-06-27T15:29:23.579Z,25.80
2018-06-27T15:31:58.631Z,25.80
2018-06-27T15:34:33.457Z,25.90
2018-06-27T15:37:08.994Z,25.90
2018-06-27T15:39:43.933Z,25.90
2018-06-27T15:42:19.564Z,25.90
2018-06-27T15:44:54.361Z,26.00
2018-06-27T15:47:31.202Z,26.10
2018-06-27T15:50:06.544Z,26.10
2018-06-27T15:52:41.408Z,25.90
2018-06-27T15:55:10.731Z,25.90
2018-06-27T15:57:46.574Z,25.80
2018-06-27T16:00:26.793Z,25.80
2018-06-27T16:03:01.913Z,25.80
2018-06-27T16:05:37.061Z,25.80
2018-06-27T16:08:12.359Z,25.80
2018-06-27T16:10:47.180Z,25.90
2018-06-27T16:13:22.147Z,25.80
2018-06-27T16:15:57.327Z,25.80
2018-06-27T16:18:32.408Z,25.80
2018-06-27T16:21:07.615Z,25.70
2018-06-27T16:23:42.593Z,25.70
2018-06-27T16:26:17.610Z,25.60
2018-06-27T16:28:53.079Z,25.60
2018-06-27T16:34:02.775Z,25.60
2018-06-27T16:36:38.236Z,25.60
2018-06-27T16:39:13.555Z,25.60
2018-06-27T16:41:48.497Z,25.60
2018-06-27T16:44:23.610Z,25.70
2018-06-27T16:46:59.121Z,25.70
2018-06-27T16:49:34.173Z,25.70
2018-06-27T16:52:09.280Z,25.70
2018-06-27T16:54:44.655Z,25.60
2018-06-27T16:59:54.437Z,25.60
2018-06-27T17:02:29.804Z,25.60
2018-06-27T17:05:05.457Z,25.50
2018-06-27T17:07:41.510Z,25.40
2018-06-27T17:10:17.074Z,25.40
2018-06-27T17:12:52.128Z,25.30
2018-06-27T17:15:27.485Z,25.30
2018-06-27T17:20:37.062Z,25.20
2018-06-27T17:23:12.457Z,25.20
2018-06-27T17:25:47.470Z,25.20
2018-06-27T17:28:22.212Z,25.30
2018-06-27T17:30:57.277Z,25.30
2018-06-27T17:33:32.307Z,25.20
2018-06-27T17:36:07.687Z,25.20
2018-06-27T17:38:42.560Z,25.00
2018-06-27T17:41:17.680Z,24.90
2018-06-27T17:43:52.639Z,24.80
2018-06-27T17:46:28.034Z,24.70
2018-06-27T17:49:03.469Z,24.70
2018-06-27T17:51:38.513Z,24.70
2018-06-27T17:54:13.840Z,24.70
2018-06-27T17:56:48.852Z,24.70
2018-06-27T18:01:59.209Z,24.70
2018-06-27T18:04:33.994Z,24.80
2018-06-27T18:09:43.639Z,24.80
2018-06-27T18:12:13.198Z,24.70
2018-06-27T18:14:49.440Z,24.70
2018-06-27T18:17:24.938Z,24.70
2018-06-27T18:20:05.413Z,24.60
2018-06-27T18:22:40.734Z,24.60
2018-06-27T18:25:16.470Z,24.60
2018-06-27T18:27:52.440Z,24.60
2018-06-27T18:30:28.007Z,24.50
2018-06-27T18:33:03.396Z,24.50
2018-06-27T18:35:40.243Z,24.50
2018-06-27T18:38:16.021Z,24.60
2018-06-27T18:40:51.581Z,24.50
2018-06-27T18:43:26.834Z,24.40
2018-06-27T18:46:02.465Z,24.30
2018-06-27T18:48:37.985Z,24.30
2018-06-27T18:51:16.490Z,24.20
2018-06-27T18:53:52.271Z,24.10
2018-06-27T18:59:05.757Z,24.10
2018-06-27T19:01:42.163Z,24.00
2018-06-27T19:04:17.280Z,24.00
2018-06-27T19:06:54.542Z,23.90
2018-06-27T19:09:30.930Z,23.90
2018-06-27T19:12:06.583Z,23.80
2018-06-27T19:14:48.621Z,23.80
2018-06-27T19:20:23.471Z,23.60
2018-06-27T19:22:59.717Z,23.60
2018-06-27T19:26:05.628Z,23.60
2018-06-27T19:28:42.697Z,23.50
2018-06-27T19:31:18.769Z,23.40
2018-06-27T19:33:54.235Z,23.30
2018-06-27T19:36:29.657Z,23.30
2018-06-27T19:39:13.547Z,23.20
2018-06-27T19:41:48.661Z,23.20
2018-06-27T19:44:25.317Z,23.10
2018-06-27T19:47:00.644Z,23.10
2018-06-27T19:52:11.909Z,23.00
2018-06-27T19:54:47.121Z,23.00
2018-06-27T19:57:23.129Z,23.00
2018-06-27T19:59:58.253Z,22.90
2018-06-27T20:02:33.487Z,22.80
2018-06-27T20:05:08.666Z,22.80
2018-06-27T20:07:44.062Z,22.70
2018-06-27T20:10:19.151Z,22.70
2018-06-27T20:12:54.362Z,22.70
2018-06-27T20:15:29.724Z,22.60
2018-06-27T20:18:04.665Z,22.60
2018-06-27T20:20:39.915Z,22.50
2018-06-27T20:23:15.240Z,22.50
2018-06-27T20:25:51.257Z,22.50
2018-06-27T20:28:26.135Z,22.40
2018-06-27T20:31:06.271Z,22.40
2018-06-27T20:33:45.217Z,22.30
2018-06-27T20:36:21.388Z,22.30
2018-06-27T20:38:58.214Z,22.30
2018-06-27T20:41:33.137Z,22.30
2018-06-27T20:44:10.625Z,22.30
2018-06-27T20:46:46.979Z,22.20
2018-06-27T20:49:22.402Z,22.20
2018-06-27T20:51:58.421Z,22.20
2018-06-27T20:54:33.733Z,22.20
2018-06-27T20:57:10.212Z,22.20
2018-06-27T20:59:45.303Z,22.20
2018-06-27T21:02:20.713Z,22.10
2018-06-27T21:04:55.682Z,22.10
2018-06-27T21:07:32.231Z,22.10
2018-06-27T21:10:07.347Z,22.00
2018-06-27T21:15:17.055Z,22.00
2018-06-27T21:17:52.022Z,21.90
2018-06-27T21:20:27.213Z,21.90
2018-06-27T21:23:02.279Z,21.90
2018-06-27T21:25:37.663Z,21.90
2018-06-27T21:28:12.656Z,21.80
2018-06-27T21:30:48.078Z,21.80
2018-06-27T21:33:22.950Z,21.80
2018-06-27T21:35:58.461Z,21.80
2018-06-27T21:38:33.838Z,21.80
2018-06-27T21:41:09.076Z,21.80
2018-06-27T21:43:43.992Z,21.80
2018-06-27T21:46:18.999Z,21.80
2018-06-27T21:48:54.673Z,21.90
2018-06-27T21:51:31.373Z,21.90
2018-06-27T21:54:06.820Z,21.90
2018-06-27T21:59:16.622Z,21.80
2018-06-27T22:01:51.921Z,21.80
2018-06-27T22:04:27.005Z,21.80
2018-06-27T22:09:30.885Z,21.80
2018-06-27T22:12:06.027Z,21.80
2018-06-27T22:14:41.285Z,21.70
2018-06-27T22:17:16.216Z,21.70
2018-06-27T22:19:51.354Z,21.70
2018-06-27T22:22:26.261Z,21.70
2018-06-27T22:25:01.146Z,21.70
2018-06-27T22:27:36.451Z,21.70
2018-06-27T22:30:11.392Z,21.60
2018-06-27T22:32:46.119Z,21.60
2018-06-27T22:35:21.198Z,21.60
2018-06-27T22:37:56.025Z,21.60
2018-06-27T22:40:31.179Z,21.70
2018-06-27T22:43:06.151Z,21.60
2018-06-27T22:45:41.224Z,21.60
2018-06-27T22:48:17.282Z,21.60
2018-06-27T22:50:46.588Z,21.60
2018-06-27T22:53:21.664Z,21.60
2018-06-27T22:55:56.701Z,21.50
2018-06-27T22:58:31.834Z,21.50
2018-06-27T23:01:06.657Z,21.50
2018-06-27T23:03:41.703Z,21.50
2018-06-27T23:06:16.799Z,21.50
2018-06-27T23:08:51.498Z,21.50
2018-06-27T23:11:26.341Z,21.40
2018-06-27T23:14:01.169Z,21.40
2018-06-27T23:19:10.323Z,21.40
2018-06-27T23:21:45.166Z,21.40
2018-06-27T23:24:20.247Z,21.40
2018-06-27T23:26:55.403Z,21.40
2018-06-27T23:29:30.447Z,21.40
2018-06-27T23:32:05.464Z,21.40
2018-06-27T23:34:40.527Z,21.40
2018-06-27T23:37:21.996Z,21.40
2018-06-27T23:39:56.741Z,21.40
2018-06-27T23:42:32.602Z,21.40
2018-06-27T23:45:08.008Z,21.40
2018-06-27T23:47:43.160Z,21.30
2018-06-27T23:50:17.901Z,21.30
2018-06-27T23:52:53.066Z,21.30
2018-06-27T23:55:27.852Z,21.30
2018-06-27T23:58:02.982Z,21.20
